Portada
METAR-TAF:

METAR-TAF

Aeropuertos :

Aeropuerto Internacional Philip S. W. Goldson

Ciudad de Belice, Belice

latitud: 17-32N, longitud: 088-18W, altitud: 5 m

Observación

El informe se hizo hace 1 hora y 46 minutos, a las 00:00 UTC
Viento 3 kt del este-sureste
Temperatura 25°C
Humedad 83%
Presión 1012 hPa
Visibilidad 10 km o más
Escasas nubes a una altura de 2000 ft

METAR: MZBZ 240000Z 12003KT 9999 FEW020 25/22 A2989 Q1012 NOSIG

Hora: 19:46 (01:46 UTC)

Pronóstico

El informe se hizo hace 4 horas y 46 minutos, a las 21:00 UTC
Pronóstico válido del 24 a las 00 UTC al 24 a las 24 UTC
Viento 5 kt del este
Visibilidad 10 km o más
Nubes dispersas a una altura de 2400 ft
Evolucionando progresivamente
del 24 a las 04 UTC al 24 a las 06 UTC
Viento 2 kt con dirección variable
Evolucionando progresivamente
del 24 a las 15 UTC al 24 a las 17 UTC
Viento 5 kt del este

TAF: MZBZ 232100Z 2400/2424 10005KT 9999 SCT024 BECMG 2404/2406 VRB02KT BECMG 2415/2417 08005KT

Observaciones y pronósticos meteorológicos de más de 4000 aeropuertos (mensajes METAR y TAF).

Los puntos amarillos y rojos representan las estaciones disponibles.

Ponga el ratón en el punto deseado para ver el nombre de la estación.

Haga clic para ver las observaciones y los pronósticos meteorológicos.

Para cambiar el mapa : haga clic en los botones verdes con una cruz de color negro para hacer un zoom, en el botón verde con un guión para alejar o en las flechas verdes para mapas adyacentes.


METAR-TAF: